Time;durP1;ratioP1;P1;durP2;ratioP2;P2;SDS_P1;SDS_P2;PMS_P1;PMS_P2;Temp;Humidity;BMP_temperature;BMP_pressure;BME280_temperature;BME280_humidity;BME280_pressure;Samples;Min_cycle;Max_cycle;Signal;HPM_P1;HPM_P2
2021/07/15 00:00:20;;;;;;;37.30;22.75;;;;;;;;;;4964589;28;20181;-73
2021/07/15 00:02:46;;;;;;;40.58;24.40;;;;;;;;;;4978275;28;20177;-71
2021/07/15 00:05:12;;;;;;;40.95;25.10;;;;;;;;;;4971787;28;20183;-72
2021/07/15 00:07:38;;;;;;;38.90;24.30;;;;;;;;;;4981777;28;20222;-75
2021/07/15 00:10:29;;;;;;;37.10;24.83;;;;;;;;;;4970626;28;20247;-72
2021/07/15 00:12:55;;;;;;;33.22;22.30;;;;;;;;;;4965945;28;20628;-71
2021/07/15 00:15:21;;;;;;;36.03;23.23;;;;;;;;;;4973496;28;20193;-72
2021/07/15 00:17:47;;;;;;;37.47;23.77;;;;;;;;;;4971102;28;20263;-74
2021/07/15 00:20:13;;;;;;;38.58;23.20;;;;;;;;;;4976988;28;20627;-73
2021/07/15 00:22:38;;;;;;;36.00;23.02;;;;;;;;;;4978832;28;20284;-74
2021/07/15 00:25:09;;;;;;;41.45;24.52;;;;;;;;;;4972938;28;20197;-74
2021/07/15 00:27:34;;;;;;;32.78;22.90;;;;;;;;;;4970979;28;20267;-72
2021/07/15 00:30:00;;;;;;;36.38;25.92;;;;;;;;;;4973986;28;20195;-72
2021/07/15 00:32:25;;;;;;;43.30;24.40;;;;;;;;;;4967394;28;20184;-72
2021/07/15 00:34:50;;;;;;;32.63;22.90;;;;;;;;;;4977720;28;20179;-71
2021/07/15 00:37:15;;;;;;;32.57;22.23;;;;;;;;;;4970092;28;20532;-72
2021/07/15 00:39:40;;;;;;;34.67;23.67;;;;;;;;;;4967765;28;20442;-72
2021/07/15 00:42:06;;;;;;;39.03;24.43;;;;;;;;;;4975276;28;20203;-71
2021/07/15 00:44:31;;;;;;;34.35;24.42;;;;;;;;;;4971473;28;20845;-72
2021/07/15 00:46:56;;;;;;;43.13;24.43;;;;;;;;;;4970268;28;20248;-72
2021/07/15 00:49:21;;;;;;;31.80;23.10;;;;;;;;;;4963342;28;20461;-72
2021/07/15 00:51:46;;;;;;;32.87;22.87;;;;;;;;;;4980109;28;20429;-72
2021/07/15 00:54:12;;;;;;;41.50;25.17;;;;;;;;;;4967266;28;20493;-73
2021/07/15 00:56:37;;;;;;;38.92;23.73;;;;;;;;;;4970764;28;21010;-72
2021/07/15 00:59:02;;;;;;;35.38;24.90;;;;;;;;;;4966431;28;20191;-72
2021/07/15 01:01:28;;;;;;;40.13;25.90;;;;;;;;;;4977592;28;20630;-72
2021/07/15 01:03:53;;;;;;;45.80;25.75;;;;;;;;;;4967256;28;20196;-72
2021/07/15 01:06:18;;;;;;;37.75;24.27;;;;;;;;;;4965859;28;20596;-73
2021/07/15 01:08:44;;;;;;;35.47;24.70;;;;;;;;;;4969055;28;20282;-71
2021/07/15 01:11:09;;;;;;;37.50;24.25;;;;;;;;;;4973144;28;20188;-72
2021/07/15 01:13:48;;;;;;;33.47;24.40;;;;;;;;;;4974216;28;20211;-73
2021/07/15 01:16:13;;;;;;;34.78;23.48;;;;;;;;;;4989133;23;20491;-74
2021/07/15 01:18:57;;;;;;;32.37;22.73;;;;;;;;;;5002169;28;20616;-74
2021/07/15 01:21:58;;;;;;;32.40;22.42;;;;;;;;;;5007239;28;20432;-74
2021/07/15 01:24:26;;;;;;;31.52;20.88;;;;;;;;;;4903005;29;20198;-74
2021/07/15 01:26:51;;;;;;;31.80;22.25;;;;;;;;;;4983840;28;20214;-74
2021/07/15 01:29:22;;;;;;;33.90;22.27;;;;;;;;;;5001979;28;20707;-75
2021/07/15 01:31:49;;;;;;;27.52;21.77;;;;;;;;;;4987828;28;20518;-76
2021/07/15 01:34:14;;;;;;;32.40;21.48;;;;;;;;;;5008593;28;20568;-74
2021/07/15 01:36:42;;;;;;;29.48;20.50;;;;;;;;;;5005781;28;20203;-74
2021/07/15 01:39:07;;;;;;;29.80;19.92;;;;;;;;;;4988102;28;20179;-75
2021/07/15 01:41:36;;;;;;;30.33;20.30;;;;;;;;;;5004843;28;20195;-74
2021/07/15 01:44:04;;;;;;;28.88;20.20;;;;;;;;;;5004944;28;20183;-74
2021/07/15 01:46:30;;;;;;;30.13;21.25;;;;;;;;;;4998871;28;20208;-74
2021/07/15 01:48:55;;;;;;;33.80;21.40;;;;;;;;;;5000705;28;20319;-76
2021/07/15 01:51:21;;;;;;;31.37;21.47;;;;;;;;;;5003128;28;20187;-74
2021/07/15 01:53:48;;;;;;;34.80;22.83;;;;;;;;;;5006200;28;20417;-74
2021/07/15 01:56:16;;;;;;;27.25;20.98;;;;;;;;;;4983003;28;20239;-75
2021/07/15 01:58:42;;;;;;;27.92;20.00;;;;;;;;;;5005077;28;20285;-73
2021/07/15 02:01:08;;;;;;;28.92;21.85;;;;;;;;;;5001760;28;20688;-75
2021/07/15 02:03:35;;;;;;;30.33;20.60;;;;;;;;;;4993287;28;20224;-75
2021/07/15 02:06:01;;;;;;;25.13;19.35;;;;;;;;;;4994892;28;20285;-75
2021/07/15 02:08:26;;;;;;;27.35;21.13;;;;;;;;;;5006442;28;20254;-74
2021/07/15 02:10:53;;;;;;;30.70;21.27;;;;;;;;;;4979729;28;20171;-75
2021/07/15 02:13:18;;;;;;;31.20;20.77;;;;;;;;;;4998776;28;20263;-74
2021/07/15 02:15:44;;;;;;;29.50;18.67;;;;;;;;;;5002020;28;20318;-74
2021/07/15 02:18:17;;;;;;;24.83;18.52;;;;;;;;;;5004629;28;20573;-74
2021/07/15 02:20:43;;;;;;;26.92;18.58;;;;;;;;;;4993868;28;20182;-76
2021/07/15 02:23:09;;;;;;;26.42;18.65;;;;;;;;;;5005955;28;20656;-75
2021/07/15 02:25:36;;;;;;;33.53;20.38;;;;;;;;;;4984133;28;20279;-75
2021/07/15 02:28:02;;;;;;;24.95;18.52;;;;;;;;;;5001978;28;20180;-74
2021/07/15 02:30:27;;;;;;;26.70;18.30;;;;;;;;;;4992771;28;20183;-74
2021/07/15 02:32:57;;;;;;;24.25;17.77;;;;;;;;;;5004509;28;20229;-74
2021/07/15 02:35:23;;;;;;;24.23;18.25;;;;;;;;;;4997467;28;20653;-74
2021/07/15 02:37:51;;;;;;;26.30;18.20;;;;;;;;;;4993127;28;20272;-76
2021/07/15 02:40:17;;;;;;;25.95;18.40;;;;;;;;;;5000642;28;20186;-74
2021/07/15 02:42:44;;;;;;;27.25;18.95;;;;;;;;;;4997550;28;20188;-75
2021/07/15 02:45:10;;;;;;;28.55;18.85;;;;;;;;;;5000187;28;20267;-74
2021/07/15 02:47:38;;;;;;;26.45;16.85;;;;;;;;;;5001590;28;20207;-74
2021/07/15 02:50:04;;;;;;;22.00;17.38;;;;;;;;;;5004907;28;20692;-74
2021/07/15 02:52:29;;;;;;;25.90;17.30;;;;;;;;;;4999383;28;20206;-74
2021/07/15 02:54:54;;;;;;;25.88;17.95;;;;;;;;;;4998266;28;20258;-73
2021/07/15 02:57:29;;;;;;;24.70;17.77;;;;;;;;;;4998470;28;20620;-74
2021/07/15 03:00:01;;;;;;;24.40;17.67;;;;;;;;;;4985751;28;20224;-73
2021/07/15 03:02:27;;;;;;;22.27;16.85;;;;;;;;;;5004259;28;20183;-74
2021/07/15 03:05:00;;;;;;;21.85;17.23;;;;;;;;;;4999282;28;20188;-74
2021/07/15 03:07:27;;;;;;;27.20;18.65;;;;;;;;;;5005588;28;20206;-74
2021/07/15 03:09:54;;;;;;;25.77;17.95;;;;;;;;;;4993404;28;20191;-72
2021/07/15 03:12:21;;;;;;;25.55;17.35;;;;;;;;;;4985356;28;20189;-75
2021/07/15 03:14:46;;;;;;;25.17;17.08;;;;;;;;;;5004150;28;20174;-73
2021/07/15 03:17:13;;;;;;;25.33;17.60;;;;;;;;;;5004090;28;20227;-74
2021/07/15 03:19:41;;;;;;;22.27;16.25;;;;;;;;;;5005477;28;20662;-74
2021/07/15 03:22:07;;;;;;;22.85;17.27;;;;;;;;;;5005078;28;20241;-74
2021/07/15 03:24:34;;;;;;;23.40;16.98;;;;;;;;;;4978899;28;20191;-73
2021/07/15 03:27:03;;;;;;;21.20;16.13;;;;;;;;;;4997056;28;20250;-74
2021/07/15 03:29:29;;;;;;;19.95;15.80;;;;;;;;;;4997798;28;20198;-74
2021/07/15 03:31:55;;;;;;;21.17;15.15;;;;;;;;;;4999975;28;20217;-75
2021/07/15 03:34:21;;;;;;;22.15;16.42;;;;;;;;;;5000094;28;20709;-74
2021/07/15 03:36:50;;;;;;;22.60;16.33;;;;;;;;;;5001009;28;20206;-73
2021/07/15 03:39:16;;;;;;;22.02;15.05;;;;;;;;;;5001714;28;20186;-74
2021/07/15 03:41:42;;;;;;;20.23;14.90;;;;;;;;;;5005819;28;20270;-74
2021/07/15 03:44:07;;;;;;;20.65;15.80;;;;;;;;;;5002315;28;20208;-74
2021/07/15 03:46:33;;;;;;;21.30;15.43;;;;;;;;;;4984976;28;20207;-74
2021/07/15 03:48:58;;;;;;;21.53;14.67;;;;;;;;;;5000158;28;20206;-73
2021/07/15 03:51:24;;;;;;;26.77;16.58;;;;;;;;;;4998451;28;20498;-73
2021/07/15 03:53:50;;;;;;;23.85;15.98;;;;;;;;;;4999234;28;20601;-74
2021/07/15 03:56:16;;;;;;;23.75;15.75;;;;;;;;;;4987748;28;20270;-73
2021/07/15 03:58:43;;;;;;;22.52;14.82;;;;;;;;;;5002382;28;20226;-74
2021/07/15 04:01:09;;;;;;;26.55;15.70;;;;;;;;;;5000976;28;20175;-73
2021/07/15 04:03:35;;;;;;;21.63;14.52;;;;;;;;;;5004323;28;20566;-74
2021/07/15 04:06:01;;;;;;;22.88;15.25;;;;;;;;;;4995566;28;20207;-74
2021/07/15 04:08:27;;;;;;;27.08;16.00;;;;;;;;;;5002029;28;20206;-74
2021/07/15 04:10:53;;;;;;;22.80;16.02;;;;;;;;;;4995656;28;20180;-74
2021/07/15 04:13:19;;;;;;;23.15;17.15;;;;;;;;;;5003240;28;20244;-74
2021/07/15 04:15:50;;;;;;;22.20;17.23;;;;;;;;;;4998901;28;20180;-74
2021/07/15 04:18:16;;;;;;;27.58;17.98;;;;;;;;;;5005592;28;20790;-74
2021/07/15 04:20:43;;;;;;;24.20;17.13;;;;;;;;;;5001533;28;20273;-75
2021/07/15 04:23:09;;;;;;;29.02;17.10;;;;;;;;;;4993189;28;20270;-74
2021/07/15 04:25:34;;;;;;;24.52;17.48;;;;;;;;;;4988728;28;20264;-74
2021/07/15 04:28:02;;;;;;;24.70;17.10;;;;;;;;;;4990838;28;20274;-74
2021/07/15 04:30:28;;;;;;;27.58;16.98;;;;;;;;;;4991687;28;20179;-74
2021/07/15 04:32:53;;;;;;;26.48;17.40;;;;;;;;;;4999932;28;20192;-74
2021/07/15 04:35:19;;;;;;;26.38;16.77;;;;;;;;;;5003248;28;20184;-75
2021/07/15 04:37:45;;;;;;;28.92;18.90;;;;;;;;;;4986937;28;20459;-74
2021/07/15 04:40:12;;;;;;;29.67;19.35;;;;;;;;;;4999879;28;20186;-73
2021/07/15 04:42:38;;;;;;;25.35;19.02;;;;;;;;;;5003350;28;20188;-73
2021/07/15 04:45:04;;;;;;;24.60;18.20;;;;;;;;;;4997253;28;20560;-74
2021/07/15 04:47:30;;;;;;;31.80;19.30;;;;;;;;;;4988036;28;20295;-74
2021/07/15 04:49:55;;;;;;;28.73;19.48;;;;;;;;;;5004210;28;20215;-75
2021/07/15 04:52:20;;;;;;;33.60;18.52;;;;;;;;;;5002738;28;20254;-73
2021/07/15 04:54:46;;;;;;;26.58;19.00;;;;;;;;;;4981140;28;20226;-74
2021/07/15 04:57:12;;;;;;;32.25;19.33;;;;;;;;;;5000692;28;20278;-75
2021/07/15 04:59:40;;;;;;;31.08;18.60;;;;;;;;;;5005825;28;20564;-75
2021/07/15 05:02:06;;;;;;;29.52;20.05;;;;;;;;;;4991240;28;20376;-76
2021/07/15 05:04:31;;;;;;;32.50;19.52;;;;;;;;;;4994231;28;20652;-75
2021/07/15 05:06:57;;;;;;;29.08;20.85;;;;;;;;;;4995989;28;20568;-76
2021/07/15 05:09:22;;;;;;;32.90;20.30;;;;;;;;;;4994369;28;20207;-76
2021/07/15 05:11:48;;;;;;;30.83;19.27;;;;;;;;;;4997061;28;20183;-75
2021/07/15 05:14:13;;;;;;;27.88;20.45;;;;;;;;;;4978931;28;20441;-75
2021/07/15 05:16:38;;;;;;;51.97;21.40;;;;;;;;;;4993001;28;20257;-75
2021/07/15 05:19:03;;;;;;;37.15;21.08;;;;;;;;;;4993547;28;20179;-75
2021/07/15 05:21:28;;;;;;;35.75;20.65;;;;;;;;;;4996226;28;20297;-75
2021/07/15 05:23:54;;;;;;;31.75;22.60;;;;;;;;;;4990613;28;20194;-77
2021/07/15 05:26:19;;;;;;;38.28;22.00;;;;;;;;;;4997806;28;20206;-76
2021/07/15 05:28:45;;;;;;;39.75;20.58;;;;;;;;;;4994678;28;20206;-76
2021/07/15 05:31:10;;;;;;;42.53;23.08;;;;;;;;;;4995205;28;20219;-74
2021/07/15 05:33:35;;;;;;;37.78;21.60;;;;;;;;;;4994580;28;20202;-76
2021/07/15 05:36:00;;;;;;;34.65;21.23;;;;;;;;;;4995914;28;20206;-75
2021/07/15 05:38:27;;;;;;;35.90;21.38;;;;;;;;;;4996969;28;20186;-76
2021/07/15 05:40:52;;;;;;;32.33;21.02;;;;;;;;;;4995094;28;20191;-75
2021/07/15 05:43:18;;;;;;;28.02;19.90;;;;;;;;;;4992636;28;20254;-76
2021/07/15 05:45:43;;;;;;;34.25;20.40;;;;;;;;;;4994145;28;20206;-77
2021/07/15 05:48:08;;;;;;;30.40;21.17;;;;;;;;;;4977395;28;20179;-76
2021/07/15 05:50:33;;;;;;;32.05;20.13;;;;;;;;;;4998340;28;20501;-75
2021/07/15 05:52:59;;;;;;;30.95;19.02;;;;;;;;;;4993390;28;20186;-75
2021/07/15 05:55:24;;;;;;;23.52;17.25;;;;;;;;;;4976981;28;20187;-76
2021/07/15 05:57:49;;;;;;;33.25;19.30;;;;;;;;;;4991014;28;20277;-75
2021/07/15 06:00:14;;;;;;;34.00;19.43;;;;;;;;;;4991574;28;20626;-74
2021/07/15 06:02:40;;;;;;;37.08;20.73;;;;;;;;;;4999163;28;20466;-76
2021/07/15 06:05:05;;;;;;;29.52;19.55;;;;;;;;;;4994571;28;20210;-75
2021/07/15 06:07:31;;;;;;;31.95;19.15;;;;;;;;;;4994556;28;20230;-76
2021/07/15 06:09:56;;;;;;;28.25;18.27;;;;;;;;;;4992940;28;20219;-76
2021/07/15 06:12:22;;;;;;;32.75;19.02;;;;;;;;;;4985773;28;20178;-75
2021/07/15 06:14:47;;;;;;;30.73;18.10;;;;;;;;;;4975338;28;20183;-76
2021/07/15 06:17:12;;;;;;;37.22;19.15;;;;;;;;;;4992771;28;20225;-75
2021/07/15 06:19:37;;;;;;;28.52;16.67;;;;;;;;;;4993557;28;20192;-76
2021/07/15 06:22:03;;;;;;;29.75;16.73;;;;;;;;;;4974552;28;20202;-76
2021/07/15 06:24:28;;;;;;;25.05;15.88;;;;;;;;;;4993258;28;20595;-75
2021/07/15 06:26:53;;;;;;;34.97;17.20;;;;;;;;;;4975904;28;20221;-77
2021/07/15 06:29:18;;;;;;;31.05;15.70;;;;;;;;;;4974596;28;20210;-74
2021/07/15 06:31:44;;;;;;;28.02;15.32;;;;;;;;;;4992112;28;20187;-77
2021/07/15 06:34:10;;;;;;;24.20;15.70;;;;;;;;;;4992330;28;20187;-76
2021/07/15 06:36:35;;;;;;;29.33;17.05;;;;;;;;;;4992572;28;20233;-75
2021/07/15 06:39:00;;;;;;;31.35;15.27;;;;;;;;;;4991387;28;20633;-76
2021/07/15 06:41:26;;;;;;;25.92;14.57;;;;;;;;;;4993215;28;20187;-74
2021/07/15 06:43:51;;;;;;;27.58;14.65;;;;;;;;;;4992898;28;20210;-74
2021/07/15 06:46:16;;;;;;;31.20;16.57;;;;;;;;;;4972951;28;20218;-76
2021/07/15 06:48:41;;;;;;;25.92;15.68;;;;;;;;;;4990895;28;20461;-74
2021/07/15 06:51:07;;;;;;;27.83;15.30;;;;;;;;;;4993586;28;20255;-76
2021/07/15 06:53:32;;;;;;;25.67;15.43;;;;;;;;;;4995270;28;20207;-76
2021/07/15 06:55:59;;;;;;;26.52;13.95;;;;;;;;;;5000784;28;20568;-76
2021/07/15 06:58:24;;;;;;;22.83;12.77;;;;;;;;;;4993156;28;20264;-74
2021/07/15 07:00:49;;;;;;;27.17;14.65;;;;;;;;;;4974032;28;20187;-75
2021/07/15 07:03:14;;;;;;;24.02;14.07;;;;;;;;;;4993565;28;20667;-76
2021/07/15 07:05:40;;;;;;;22.25;14.77;;;;;;;;;;4975873;28;20183;-75
2021/07/15 07:08:05;;;;;;;25.75;14.63;;;;;;;;;;4993691;28;20183;-74
2021/07/15 07:10:30;;;;;;;27.10;14.10;;;;;;;;;;4992683;28;20190;-75
2021/07/15 07:12:56;;;;;;;22.77;13.32;;;;;;;;;;4980840;28;20183;-74
2021/07/15 07:15:21;;;;;;;26.77;15.20;;;;;;;;;;4992109;28;20226;-75
2021/07/15 07:17:47;;;;;;;23.13;14.02;;;;;;;;;;4960063;23;20315;-72
2021/07/15 07:20:14;;;;;;;21.30;14.50;;;;;;;;;;4939543;28;20204;-69
2021/07/15 07:22:39;;;;;;;24.70;13.45;;;;;;;;;;4933853;28;20272;-72
2021/07/15 07:25:05;;;;;;;26.42;14.10;;;;;;;;;;4933931;28;20189;-71
2021/07/15 07:27:31;;;;;;;24.10;14.15;;;;;;;;;;4940193;28;20958;-70
2021/07/15 07:29:57;;;;;;;24.13;14.20;;;;;;;;;;4932779;28;20308;-73
2021/07/15 07:32:22;;;;;;;30.45;15.60;;;;;;;;;;4936181;28;20219;-70
2021/07/15 07:34:47;;;;;;;27.98;14.93;;;;;;;;;;4936059;28;20189;-70
2021/07/15 07:37:12;;;;;;;29.58;14.40;;;;;;;;;;4934429;28;20284;-69
2021/07/15 07:39:37;;;;;;;24.95;13.73;;;;;;;;;;4936348;28;20188;-71
2021/07/15 07:42:03;;;;;;;23.75;14.15;;;;;;;;;;4942356;28;20200;-70
2021/07/15 07:44:28;;;;;;;25.10;13.77;;;;;;;;;;4933617;28;20185;-69
2021/07/15 07:46:53;;;;;;;26.83;14.02;;;;;;;;;;4938007;28;20208;-71
2021/07/15 07:49:19;;;;;;;25.48;13.65;;;;;;;;;;4934002;28;20216;-70
2021/07/15 07:51:44;;;;;;;22.87;13.60;;;;;;;;;;4936927;28;20189;-72
2021/07/15 07:54:09;;;;;;;29.02;16.10;;;;;;;;;;4934425;28;20475;-71
2021/07/15 07:56:34;;;;;;;29.80;14.60;;;;;;;;;;4934684;28;21624;-72
2021/07/15 07:59:00;;;;;;;31.35;13.80;;;;;;;;;;4933831;28;20227;-72
2021/07/15 08:01:25;;;;;;;26.77;14.52;;;;;;;;;;4941589;28;20185;-72
2021/07/15 08:03:50;;;;;;;22.88;14.05;;;;;;;;;;4935688;28;20181;-72
2021/07/15 08:06:16;;;;;;;32.33;15.70;;;;;;;;;;4935408;28;20212;-73
2021/07/15 08:08:41;;;;;;;28.52;15.55;;;;;;;;;;4936688;28;20308;-72
2021/07/15 08:11:08;;;;;;;21.95;14.48;;;;;;;;;;4933818;28;20673;-73
2021/07/15 08:13:33;;;;;;;29.40;13.63;;;;;;;;;;4936501;28;20781;-72
2021/07/15 08:15:59;;;;;;;25.67;14.48;;;;;;;;;;4918801;28;20335;-71
2021/07/15 08:18:24;;;;;;;22.92;13.43;;;;;;;;;;4936246;28;20296;-71
2021/07/15 08:20:49;;;;;;;23.35;14.23;;;;;;;;;;4934904;28;20172;-72
2021/07/15 08:23:15;;;;;;;23.55;13.50;;;;;;;;;;4935488;28;20184;-72
2021/07/15 08:25:40;;;;;;;28.20;12.70;;;;;;;;;;4939270;28;20182;-71
2021/07/15 08:28:06;;;;;;;28.42;13.20;;;;;;;;;;4944014;28;20206;-70
2021/07/15 08:30:31;;;;;;;29.58;13.50;;;;;;;;;;4937937;28;20646;-73
2021/07/15 08:32:56;;;;;;;22.77;12.63;;;;;;;;;;4941436;28;20200;-72
2021/07/15 08:35:21;;;;;;;24.17;11.80;;;;;;;;;;4922343;28;20530;-72
2021/07/15 08:37:46;;;;;;;25.27;13.32;;;;;;;;;;4939830;28;21823;-69
2021/07/15 08:40:12;;;;;;;24.63;12.90;;;;;;;;;;4945725;28;20494;-72
2021/07/15 08:42:38;;;;;;;26.92;13.55;;;;;;;;;;4941458;28;20236;-71
2021/07/15 08:45:05;;;;;;;18.77;11.20;;;;;;;;;;4932824;28;20733;-71
2021/07/15 08:47:30;;;;;;;19.33;11.25;;;;;;;;;;4938833;28;20262;-70
2021/07/15 08:49:55;;;;;;;26.85;13.90;;;;;;;;;;4939613;28;20218;-70
2021/07/15 08:52:21;;;;;;;25.38;13.23;;;;;;;;;;4939660;28;20670;-73
2021/07/15 08:55:00;;;;;;;24.63;12.52;;;;;;;;;;4948021;28;20671;-71
2021/07/15 08:57:26;;;;;;;29.58;12.43;;;;;;;;;;4940845;28;20205;-69
2021/07/15 08:59:51;;;;;;;25.38;14.15;;;;;;;;;;4926159;29;20661;-73
2021/07/15 09:02:20;;;;;;;20.52;12.73;;;;;;;;;;4946238;28;20221;-71
2021/07/15 09:04:46;;;;;;;23.08;12.70;;;;;;;;;;4940600;28;20204;-74
2021/07/15 09:07:11;;;;;;;24.88;15.13;;;;;;;;;;4939179;28;20213;-73
2021/07/15 09:09:36;;;;;;;24.80;12.95;;;;;;;;;;4940580;28;20205;-74
2021/07/15 09:12:02;;;;;;;24.35;13.70;;;;;;;;;;4943844;28;20181;-73
2021/07/15 09:14:27;;;;;;;22.55;12.55;;;;;;;;;;4943155;28;20538;-73
2021/07/15 09:16:53;;;;;;;16.67;11.90;;;;;;;;;;4939711;28;20211;-73
2021/07/15 09:19:20;;;;;;;21.58;13.15;;;;;;;;;;4943586;28;20431;-73
2021/07/15 09:21:45;;;;;;;23.58;13.32;;;;;;;;;;4935930;28;20659;-73
2021/07/15 09:24:30;;;;;;;22.35;12.48;;;;;;;;;;4935815;28;20220;-71
2021/07/15 09:26:55;;;;;;;22.42;12.32;;;;;;;;;;4939975;28;20701;-72
2021/07/15 09:29:20;;;;;;;22.58;13.55;;;;;;;;;;4948514;28;20209;-72
2021/07/15 09:31:56;;;;;;;25.00;13.40;;;;;;;;;;4930528;28;20184;-71
2021/07/15 09:34:22;;;;;;;21.20;13.00;;;;;;;;;;4935555;28;20184;-72
2021/07/15 09:36:47;;;;;;;24.92;14.80;;;;;;;;;;4938299;28;20208;-71
2021/07/15 09:39:16;;;;;;;21.42;12.52;;;;;;;;;;4940825;28;20643;-71
2021/07/15 09:41:42;;;;;;;19.23;12.55;;;;;;;;;;4937333;28;20283;-72
2021/07/15 09:44:07;;;;;;;19.73;12.68;;;;;;;;;;4935440;28;20191;-71
2021/07/15 09:46:36;;;;;;;16.60;11.57;;;;;;;;;;4923791;29;20438;-71
2021/07/15 09:49:04;;;;;;;15.27;11.43;;;;;;;;;;4938023;28;20933;-71
2021/07/15 09:51:36;;;;;;;21.55;13.55;;;;;;;;;;4936217;28;20192;-70
2021/07/15 09:54:02;;;;;;;27.50;13.40;;;;;;;;;;4936915;28;20284;-70
2021/07/15 09:56:28;;;;;;;19.48;12.65;;;;;;;;;;4937872;28;20468;-70
2021/07/15 09:58:54;;;;;;;19.88;12.93;;;;;;;;;;4940982;28;20277;-70
2021/07/15 10:01:21;;;;;;;20.67;12.70;;;;;;;;;;4937516;28;20328;-70
2021/07/15 10:03:47;;;;;;;19.88;13.15;;;;;;;;;;4939496;28;20685;-70
2021/07/15 10:06:13;;;;;;;19.67;11.77;;;;;;;;;;4937994;28;20185;-69
2021/07/15 10:08:40;;;;;;;24.85;11.32;;;;;;;;;;4942447;28;20224;-70
2021/07/15 10:11:20;;;;;;;14.85;10.20;;;;;;;;;;4938356;28;20223;-70
2021/07/15 10:13:47;;;;;;;17.50;10.77;;;;;;;;;;4937155;28;20200;-70
2021/07/15 10:16:13;;;;;;;16.35;10.18;;;;;;;;;;4937543;28;20173;-70
2021/07/15 10:18:38;;;;;;;16.60;9.98;;;;;;;;;;4938280;28;20265;-69
2021/07/15 10:21:03;;;;;;;15.85;9.15;;;;;;;;;;4936933;28;20195;-70
2021/07/15 10:23:30;;;;;;;11.82;9.63;;;;;;;;;;4941366;28;20724;-69
2021/07/15 10:25:55;;;;;;;15.00;10.07;;;;;;;;;;4936823;28;20177;-70
2021/07/15 10:28:21;;;;;;;18.88;10.77;;;;;;;;;;4940052;28;20220;-71
2021/07/15 10:30:46;;;;;;;14.23;10.02;;;;;;;;;;4937478;28;20182;-69
2021/07/15 10:33:11;;;;;;;17.88;11.35;;;;;;;;;;4938386;28;20231;-69
2021/07/15 10:35:36;;;;;;;20.48;11.57;;;;;;;;;;4936520;28;20212;-69
2021/07/15 10:38:03;;;;;;;18.73;11.27;;;;;;;;;;4941486;28;20220;-70
2021/07/15 10:40:28;;;;;;;17.27;12.00;;;;;;;;;;4940070;28;20181;-70
2021/07/15 10:42:54;;;;;;;18.38;12.02;;;;;;;;;;4924444;28;20193;-70
2021/07/15 10:45:19;;;;;;;19.10;11.07;;;;;;;;;;4937041;28;20219;-70
2021/07/15 10:47:45;;;;;;;20.02;11.63;;;;;;;;;;4942695;28;20291;-71
2021/07/15 10:50:10;;;;;;;18.95;12.05;;;;;;;;;;4940345;28;20712;-69
2021/07/15 10:52:37;;;;;;;20.92;10.65;;;;;;;;;;4939950;28;20181;-70
2021/07/15 10:55:03;;;;;;;14.13;8.82;;;;;;;;;;4936014;28;20185;-70
2021/07/15 10:57:29;;;;;;;14.65;9.90;;;;;;;;;;4938566;28;20193;-70
2021/07/15 11:00:14;;;;;;;16.42;10.73;;;;;;;;;;4935256;28;20204;-70
2021/07/15 11:02:39;;;;;;;14.43;10.73;;;;;;;;;;4936476;28;20192;-69
2021/07/15 11:05:23;;;;;;;16.67;10.35;;;;;;;;;;4937366;28;20191;-71
2021/07/15 11:07:48;;;;;;;14.98;10.48;;;;;;;;;;4945647;28;20932;-70
2021/07/15 11:10:17;;;;;;;14.17;11.17;;;;;;;;;;4941225;28;20201;-69
2021/07/15 11:12:54;;;;;;;16.35;9.70;;;;;;;;;;4935322;28;20518;-69
2021/07/15 11:15:19;;;;;;;14.60;11.05;;;;;;;;;;4936300;28;20204;-69
2021/07/15 11:17:47;;;;;;;15.43;11.07;;;;;;;;;;4935066;28;20212;-70
2021/07/15 11:20:28;;;;;;;21.33;11.82;;;;;;;;;;4936608;28;20185;-69
2021/07/15 11:22:56;;;;;;;18.50;11.82;;;;;;;;;;4934316;28;20239;-69
2021/07/15 11:25:27;;;;;;;17.05;11.27;;;;;;;;;;4936674;28;20193;-69
2021/07/15 11:27:53;;;;;;;21.45;13.50;;;;;;;;;;4933288;28;20195;-69
2021/07/15 11:30:34;;;;;;;18.17;12.43;;;;;;;;;;4934858;28;20287;-69
2021/07/15 11:33:23;;;;;;;19.95;12.57;;;;;;;;;;4936200;28;20195;-68
2021/07/15 11:35:49;;;;;;;18.92;12.48;;;;;;;;;;4933685;28;20208;-70
2021/07/15 11:38:23;;;;;;;19.60;12.80;;;;;;;;;;4935642;28;20193;-69
2021/07/15 11:40:48;;;;;;;20.23;12.85;;;;;;;;;;4944141;28;21476;-70
2021/07/15 11:43:18;;;;;;;18.35;13.00;;;;;;;;;;4920478;28;20292;-69
2021/07/15 11:46:03;;;;;;;22.00;13.57;;;;;;;;;;4937020;28;20254;-70
2021/07/15 11:48:44;;;;;;;25.27;13.00;;;;;;;;;;4940031;28;20212;-70
2021/07/15 11:51:28;;;;;;;22.60;13.93;;;;;;;;;;4938782;28;20660;-70
2021/07/15 11:54:13;;;;;;;17.77;13.05;;;;;;;;;;4936404;28;20185;-69
2021/07/15 11:56:38;;;;;;;24.05;13.38;;;;;;;;;;4933768;28;20201;-69
2021/07/15 11:59:03;;;;;;;23.40;13.65;;;;;;;;;;4934997;28;20589;-70
2021/07/15 12:01:32;;;;;;;24.90;14.03;;;;;;;;;;4932139;29;20192;-70
2021/07/15 12:04:01;;;;;;;17.50;13.07;;;;;;;;;;4936755;28;20466;-69
2021/07/15 12:06:27;;;;;;;18.40;12.27;;;;;;;;;;4938300;28;20595;-70
2021/07/15 12:08:52;;;;;;;17.75;12.20;;;;;;;;;;4937077;28;20209;-70
2021/07/15 12:11:21;;;;;;;18.38;11.35;;;;;;;;;;4937264;28;20235;-70
2021/07/15 12:13:50;;;;;;;20.95;12.63;;;;;;;;;;4935662;28;20181;-70
2021/07/15 12:16:17;;;;;;;17.95;12.18;;;;;;;;;;4939030;28;20661;-70
2021/07/15 12:18:43;;;;;;;21.13;13.70;;;;;;;;;;4933635;28;20189;-70
2021/07/15 12:21:08;;;;;;;16.80;11.90;;;;;;;;;;4938991;28;20199;-71
2021/07/15 12:23:37;;;;;;;19.40;13.60;;;;;;;;;;4951712;28;20216;-71
2021/07/15 12:26:04;;;;;;;22.85;13.80;;;;;;;;;;4942692;28;20687;-70
2021/07/15 12:28:30;;;;;;;22.38;12.70;;;;;;;;;;4936433;28;20197;-69
2021/07/15 12:31:02;;;;;;;16.88;11.70;;;;;;;;;;4936010;28;20181;-70
2021/07/15 12:33:54;;;;;;;15.98;11.43;;;;;;;;;;4934918;28;20181;-71
2021/07/15 12:36:24;;;;;;;20.42;11.63;;;;;;;;;;4936752;28;20216;-71
2021/07/15 12:38:50;;;;;;;21.35;12.32;;;;;;;;;;4943262;28;20236;-71
2021/07/15 12:41:28;;;;;;;18.83;11.88;;;;;;;;;;4931558;28;20398;-69
2021/07/15 12:44:01;;;;;;;15.05;10.27;;;;;;;;;;4934710;28;20200;-69
2021/07/15 12:46:26;;;;;;;21.67;12.05;;;;;;;;;;4939276;28;20205;-70
2021/07/15 12:48:56;;;;;;;21.08;12.07;;;;;;;;;;4933995;28;21971;-70
2021/07/15 12:51:26;;;;;;;17.92;12.20;;;;;;;;;;4936393;28;20177;-69
2021/07/15 12:53:53;;;;;;;18.17;12.35;;;;;;;;;;4934100;28;20192;-70
2021/07/15 12:56:20;;;;;;;14.07;11.10;;;;;;;;;;4919373;28;20761;-70
2021/07/15 12:58:55;;;;;;;18.80;11.98;;;;;;;;;;4938214;28;20196;-70
2021/07/15 13:01:22;;;;;;;15.95;11.57;;;;;;;;;;4938401;28;20220;-70
2021/07/15 13:03:59;;;;;;;16.95;11.55;;;;;;;;;;4931277;28;21111;-70
2021/07/15 13:06:28;;;;;;;17.52;11.05;;;;;;;;;;4934052;28;20283;-70
2021/07/15 13:09:01;;;;;;;19.15;11.80;;;;;;;;;;4936780;28;20252;-70
2021/07/15 13:14:16;;;;;;;19.00;12.73;;;;;;;;;;4938684;28;20232;-69
2021/07/15 13:16:46;;;;;;;15.63;11.30;;;;;;;;;;4959917;23;20299;-73
2021/07/15 13:19:12;;;;;;;23.80;12.63;;;;;;;;;;4990037;28;20196;-74
2021/07/15 13:21:37;;;;;;;16.80;10.45;;;;;;;;;;4989804;28;20226;-73
2021/07/15 13:24:03;;;;;;;14.48;10.60;;;;;;;;;;4988010;28;20194;-74
2021/07/15 13:26:29;;;;;;;18.70;10.10;;;;;;;;;;4991376;28;20649;-74
2021/07/15 13:28:54;;;;;;;13.70;10.35;;;;;;;;;;4979681;28;20204;-73
2021/07/15 13:31:19;;;;;;;14.85;10.25;;;;;;;;;;4977128;28;20183;-74
2021/07/15 13:33:46;;;;;;;14.45;10.60;;;;;;;;;;4975204;28;20175;-73
2021/07/15 13:36:12;;;;;;;17.33;10.70;;;;;;;;;;4989060;28;20176;-75
2021/07/15 13:38:55;;;;;;;17.80;11.60;;;;;;;;;;4974953;28;20598;-75
2021/07/15 13:41:22;;;;;;;16.67;11.13;;;;;;;;;;4977200;28;20270;-74
2021/07/15 13:43:47;;;;;;;17.67;11.63;;;;;;;;;;4977112;28;20847;-75
2021/07/15 13:46:17;;;;;;;18.00;10.93;;;;;;;;;;4975572;28;20681;-74
2021/07/15 13:48:42;;;;;;;18.42;11.73;;;;;;;;;;4990753;28;20440;-76
2021/07/15 13:51:11;;;;;;;15.55;10.93;;;;;;;;;;4978181;28;20175;-74
2021/07/15 13:53:38;;;;;;;15.05;10.77;;;;;;;;;;4977127;28;20234;-75
2021/07/15 13:56:03;;;;;;;21.50;12.57;;;;;;;;;;4991577;28;20553;-75
2021/07/15 13:58:28;;;;;;;18.90;11.75;;;;;;;;;;4975448;28;20208;-76
2021/07/15 14:00:58;;;;;;;15.82;12.05;;;;;;;;;;4975584;28;20196;-74
2021/07/15 14:03:23;;;;;;;18.83;13.20;;;;;;;;;;4974825;28;20230;-76
2021/07/15 14:05:49;;;;;;;16.45;13.18;;;;;;;;;;4976420;28;20188;-75
2021/07/15 14:08:15;;;;;;;17.52;12.90;;;;;;;;;;4997176;28;20198;-75
2021/07/15 14:10:40;;;;;;;19.52;13.18;;;;;;;;;;4989431;28;20220;-73
2021/07/15 14:13:06;;;;;;;15.70;12.15;;;;;;;;;;4979789;28;20187;-75
2021/07/15 14:15:35;;;;;;;18.25;12.85;;;;;;;;;;4977200;28;20282;-74
2021/07/15 14:18:11;;;;;;;20.63;14.75;;;;;;;;;;4979062;28;20285;-73